createdAt,value
2019-03-06T00:00:42.306Z,93.50
2019-03-06T00:03:11.155Z,93.20
2019-03-06T00:05:40.172Z,93.10
2019-03-06T00:08:09.070Z,93.20
2019-03-06T00:10:37.787Z,93.30
2019-03-06T00:13:06.563Z,93.30
2019-03-06T00:15:35.364Z,93.40
2019-03-06T00:18:04.701Z,93.50
2019-03-06T00:20:33.522Z,93.40
2019-03-06T00:23:02.403Z,93.50
2019-03-06T00:25:31.219Z,93.50
2019-03-06T00:28:00.059Z,93.60
2019-03-06T00:30:29.059Z,93.50
2019-03-06T00:32:57.891Z,93.60
2019-03-06T00:35:33.859Z,93.50
2019-03-06T00:38:02.677Z,93.50
2019-03-06T00:40:33.377Z,93.50
2019-03-06T00:43:02.268Z,93.50
2019-03-06T00:45:31.101Z,93.60
2019-03-06T00:47:59.940Z,93.80
2019-03-06T00:50:28.819Z,93.90
2019-03-06T00:52:57.571Z,93.80
2019-03-06T00:55:26.371Z,93.80
2019-03-06T00:57:55.180Z,93.80
2019-03-06T01:00:25.586Z,93.70
2019-03-06T01:02:54.475Z,93.50
2019-03-06T01:05:24.277Z,93.40
2019-03-06T01:07:53.032Z,93.40
2019-03-06T01:10:21.934Z,93.40
2019-03-06T01:12:50.803Z,93.30
2019-03-06T01:15:19.844Z,93.40
2019-03-06T01:17:48.922Z,93.40
2019-03-06T01:20:17.819Z,93.30
2019-03-06T01:22:46.659Z,93.40
2019-03-06T01:25:19.444Z,93.40
2019-03-06T01:27:48.331Z,93.50
2019-03-06T01:30:19.645Z,93.50
2019-03-06T01:32:53.091Z,93.50
2019-03-06T01:35:23.476Z,93.40
2019-03-06T01:38:00.099Z,93.50
2019-03-06T01:40:30.507Z,93.40
2019-03-06T01:43:00.900Z,93.30
2019-03-06T01:45:29.788Z,93.30
2019-03-06T01:47:58.610Z,93.40
2019-03-06T01:50:27.796Z,93.40
2019-03-06T01:52:56.668Z,93.40
2019-03-06T01:55:25.491Z,93.40
2019-03-06T01:57:54.241Z,93.30
2019-03-06T02:00:23.235Z,93.30
2019-03-06T02:02:52.003Z,93.20
2019-03-06T02:05:20.755Z,93.20
2019-03-06T02:07:49.570Z,93.30
2019-03-06T02:10:18.804Z,93.30
2019-03-06T02:12:48.219Z,93.40
2019-03-06T02:15:18.369Z,93.40
2019-03-06T02:17:47.171Z,93.30
2019-03-06T02:20:19.375Z,93.40
2019-03-06T02:22:48.227Z,93.50
2019-03-06T02:25:17.145Z,93.50
2019-03-06T02:27:46.155Z,93.50
2019-03-06T02:30:21.942Z,93.80
2019-03-06T02:32:50.955Z,93.80
2019-03-06T02:35:19.802Z,93.50
2019-03-06T02:37:48.668Z,93.40
2019-03-06T02:40:17.474Z,93.40
2019-03-06T02:42:46.236Z,93.40
2019-03-06T02:45:17.723Z,93.40
2019-03-06T02:47:46.475Z,93.50
2019-03-06T02:50:16.801Z,93.60
2019-03-06T02:52:45.653Z,93.50
2019-03-06T02:55:16.508Z,93.40
2019-03-06T02:58:03.460Z,93.50
2019-03-06T03:00:39.614Z,93.60
2019-03-06T03:03:10.092Z,93.60
2019-03-06T03:05:40.485Z,93.70
2019-03-06T03:08:09.303Z,94.00
2019-03-06T03:10:38.098Z,93.70
2019-03-06T03:13:06.844Z,93.80
2019-03-06T03:15:35.676Z,93.70
2019-03-06T03:18:04.564Z,93.70
2019-03-06T03:20:33.386Z,93.80
2019-03-06T03:23:02.211Z,93.80
2019-03-06T03:25:31.190Z,93.70
2019-03-06T03:27:59.941Z,93.70
2019-03-06T03:30:29.671Z,93.70
2019-03-06T03:32:58.452Z,93.60
2019-03-06T03:35:27.191Z,93.70
2019-03-06T03:37:56.259Z,93.70
2019-03-06T03:40:25.051Z,93.70
2019-03-06T03:42:53.875Z,93.80
2019-03-06T03:45:22.631Z,93.90
2019-03-06T03:47:51.473Z,94.00
2019-03-06T03:50:20.358Z,94.10
2019-03-06T03:52:49.162Z,94.00
2019-03-06T03:55:18.639Z,94.00
2019-03-06T03:57:47.484Z,94.00
2019-03-06T04:00:19.060Z,94.00
2019-03-06T04:02:48.036Z,93.90
2019-03-06T04:05:16.772Z,93.90
2019-03-06T04:07:45.625Z,94.00
2019-03-06T04:10:15.437Z,94.10
2019-03-06T04:12:44.171Z,94.20
2019-03-06T04:15:17.109Z,94.40
2019-03-06T04:17:45.934Z,94.40
2019-03-06T04:20:15.729Z,94.50
2019-03-06T04:22:44.695Z,94.60
2019-03-06T04:25:13.689Z,94.60
2019-03-06T04:27:42.449Z,94.40
2019-03-06T04:30:18.287Z,94.20
2019-03-06T04:32:48.018Z,94.20
2019-03-06T04:35:16.836Z,94.20
2019-03-06T04:37:45.679Z,94.10
2019-03-06T04:40:17.691Z,94.10
2019-03-06T04:42:46.554Z,94.00
2019-03-06T04:45:17.312Z,94.00
2019-03-06T04:47:46.067Z,94.10
2019-03-06T04:50:15.509Z,94.00
2019-03-06T04:52:44.531Z,94.10
2019-03-06T04:55:14.675Z,94.10
2019-03-06T04:57:43.493Z,94.20
2019-03-06T05:00:22.716Z,94.20
2019-03-06T05:02:51.746Z,94.30
2019-03-06T05:05:20.529Z,94.40
2019-03-06T05:07:49.352Z,94.50
2019-03-06T05:10:18.169Z,94.60
2019-03-06T05:12:46.986Z,94.60
2019-03-06T05:15:19.282Z,94.70
2019-03-06T05:18:01.603Z,94.70
2019-03-06T05:20:30.483Z,94.70
2019-03-06T05:22:59.237Z,94.60
2019-03-06T05:25:28.347Z,94.50
2019-03-06T05:27:57.220Z,94.50
2019-03-06T05:30:27.639Z,94.40
2019-03-06T05:32:59.372Z,94.30
2019-03-06T05:35:51.324Z,94.20
2019-03-06T05:38:41.435Z,94.10
2019-03-06T05:41:10.315Z,94.10
2019-03-06T05:43:39.092Z,94.10
2019-03-06T05:46:07.883Z,94.10
2019-03-06T05:48:36.700Z,94.00
2019-03-06T05:51:05.540Z,94.10
2019-03-06T05:53:34.323Z,94.20
2019-03-06T05:56:03.138Z,94.20
2019-03-06T05:58:31.966Z,94.20
2019-03-06T06:01:00.779Z,94.20
2019-03-06T06:03:29.580Z,94.20
2019-03-06T06:05:58.337Z,94.20
2019-03-06T06:08:27.171Z,94.10
2019-03-06T06:10:56.093Z,94.00
2019-03-06T06:13:24.891Z,94.00
2019-03-06T06:15:53.706Z,94.00
2019-03-06T06:18:22.540Z,94.10
2019-03-06T06:20:52.932Z,94.20
2019-03-06T06:23:38.515Z,94.10
2019-03-06T06:26:07.610Z,94.20
2019-03-06T06:28:36.888Z,94.20
2019-03-06T06:31:05.773Z,94.30
2019-03-06T06:33:34.594Z,94.30
2019-03-06T06:36:04.158Z,94.30
2019-03-06T06:38:33.035Z,94.30
2019-03-06T06:41:02.580Z,94.70
2019-03-06T06:43:31.418Z,94.40
2019-03-06T06:46:00.227Z,94.40
2019-03-06T06:48:32.796Z,94.50
2019-03-06T06:51:04.660Z,94.50
2019-03-06T06:53:42.086Z,94.50
2019-03-06T06:56:42.459Z,94.60
2019-03-06T06:59:16.995Z,94.60
2019-03-06T07:02:24.987Z,94.70
2019-03-06T07:05:20.914Z,94.70
2019-03-06T07:07:53.860Z,94.80
2019-03-06T07:10:39.263Z,94.80
2019-03-06T07:13:18.731Z,94.80
2019-03-06T07:15:49.135Z,95.40
2019-03-06T07:18:25.358Z,95.10
2019-03-06T07:20:55.764Z,95.10
2019-03-06T07:23:26.180Z,95.10
2019-03-06T07:26:02.433Z,95.40
2019-03-06T07:28:38.836Z,95.80
2019-03-06T07:31:21.187Z,95.60
2019-03-06T07:33:51.555Z,95.30
2019-03-06T07:36:38.562Z,95.40
2019-03-06T07:39:10.635Z,95.30
2019-03-06T07:41:47.004Z,95.00
2019-03-06T07:44:17.396Z,94.60
2019-03-06T07:47:02.859Z,94.00
2019-03-06T07:49:44.850Z,93.80
2019-03-06T07:52:13.990Z,93.90
2019-03-06T07:54:50.651Z,93.80
2019-03-06T07:57:21.115Z,93.50
2019-03-06T07:59:49.962Z,93.50
2019-03-06T08:02:31.017Z,93.80
2019-03-06T08:04:59.767Z,93.40
2019-03-06T08:07:28.595Z,93.30
2019-03-06T08:09:57.490Z,93.40
2019-03-06T08:12:27.900Z,93.40
2019-03-06T08:14:58.285Z,93.30
2019-03-06T08:17:37.580Z,93.30
2019-03-06T08:20:14.427Z,93.50
2019-03-06T08:23:00.843Z,93.20
2019-03-06T08:25:49.294Z,93.80
2019-03-06T08:28:18.211Z,94.00
2019-03-06T08:30:51.553Z,93.20
2019-03-06T08:33:20.387Z,93.40
2019-03-06T08:35:49.276Z,93.50
2019-03-06T08:38:18.003Z,93.10
2019-03-06T08:40:48.490Z,93.00
2019-03-06T08:43:17.283Z,92.90
2019-03-06T08:45:50.828Z,92.90
2019-03-06T08:48:21.275Z,92.60
2019-03-06T08:51:03.665Z,91.30
2019-03-06T08:53:34.124Z,91.60
2019-03-06T08:56:07.510Z,90.60
2019-03-06T08:58:37.947Z,90.40
2019-03-06T09:01:37.826Z,89.30
2019-03-06T09:04:20.725Z,87.90
2019-03-06T09:07:00.491Z,86.80
2019-03-06T09:09:49.435Z,87.20
2019-03-06T09:12:34.650Z,86.80
2019-03-06T09:15:23.806Z,86.30
2019-03-06T09:18:10.916Z,86.60
2019-03-06T09:20:50.283Z,86.00
2019-03-06T09:23:23.457Z,85.80
2019-03-06T09:25:52.739Z,85.40
2019-03-06T09:28:38.307Z,85.00
2019-03-06T09:31:11.730Z,84.90
2019-03-06T09:33:45.069Z,84.90
2019-03-06T09:36:33.619Z,84.80
2019-03-06T09:39:06.621Z,83.40
2019-03-06T09:41:37.866Z,83.60
2019-03-06T09:44:20.332Z,84.50
2019-03-06T09:46:59.820Z,83.70
2019-03-06T09:49:48.323Z,82.50
2019-03-06T09:52:24.698Z,82.90
2019-03-06T09:54:55.198Z,82.60
2019-03-06T09:57:34.739Z,83.20
2019-03-06T10:00:06.291Z,82.60
2019-03-06T10:02:42.972Z,82.40
2019-03-06T10:05:16.773Z,81.30
2019-03-06T10:08:03.700Z,81.70
2019-03-06T10:10:34.195Z,80.10
2019-03-06T10:13:07.057Z,79.00
2019-03-06T10:15:37.443Z,77.80
2019-03-06T10:18:07.911Z,76.60
2019-03-06T10:20:36.667Z,76.10
2019-03-06T10:23:05.529Z,76.60
2019-03-06T10:25:34.351Z,75.90
2019-03-06T10:28:06.323Z,77.50
2019-03-06T10:30:33.684Z,76.60
2019-03-06T10:33:02.597Z,74.60
2019-03-06T10:35:31.427Z,74.20
2019-03-06T10:38:00.555Z,73.80
2019-03-06T10:40:29.364Z,72.60
2019-03-06T10:42:59.208Z,73.50
2019-03-06T10:45:28.043Z,72.80
2019-03-06T10:47:57.235Z,71.40
2019-03-06T10:50:28.084Z,71.60
2019-03-06T10:52:56.596Z,68.10
2019-03-06T10:55:25.378Z,68.60
2019-03-06T10:57:54.547Z,67.80
2019-03-06T11:00:30.676Z,64.90
2019-03-06T11:02:59.952Z,66.40
2019-03-06T11:05:30.402Z,65.90
2019-03-06T11:08:00.395Z,64.70
2019-03-06T11:10:31.234Z,64.90
2019-03-06T11:13:01.707Z,65.50
2019-03-06T11:15:30.909Z,63.10
2019-03-06T11:17:59.716Z,65.00
2019-03-06T11:20:31.467Z,66.30
2019-03-06T11:23:02.571Z,65.40
2019-03-06T11:25:33.316Z,61.30
2019-03-06T11:28:02.284Z,59.40
2019-03-06T11:30:40.404Z,57.80
2019-03-06T11:33:10.844Z,56.10
2019-03-06T11:35:39.778Z,57.40
2019-03-06T11:38:10.140Z,58.30
2019-03-06T11:40:38.971Z,57.20
2019-03-06T11:43:09.445Z,56.60
2019-03-06T11:45:40.490Z,56.20
2019-03-06T11:48:09.684Z,57.50
2019-03-06T11:50:41.093Z,57.20
2019-03-06T11:53:09.051Z,57.30
2019-03-06T11:55:38.201Z,57.70
2019-03-06T11:58:09.595Z,58.50
2019-03-06T12:00:42.979Z,57.90
2019-03-06T12:03:12.010Z,57.90
2019-03-06T12:05:41.051Z,58.10
2019-03-06T12:08:12.363Z,58.10
2019-03-06T12:10:41.315Z,57.20
2019-03-06T12:13:12.211Z,57.30
2019-03-06T12:15:42.867Z,57.90
2019-03-06T12:18:11.580Z,58.80
2019-03-06T12:20:40.425Z,59.10
2019-03-06T12:23:09.218Z,57.70
2019-03-06T12:25:38.555Z,58.30
2019-03-06T12:28:10.164Z,57.40
2019-03-06T12:30:39.595Z,58.50
2019-03-06T12:33:08.435Z,58.30
2019-03-06T12:35:37.467Z,57.40
2019-03-06T12:38:06.340Z,55.80
2019-03-06T12:40:35.282Z,56.50
2019-03-06T12:43:04.530Z,56.00
2019-03-06T12:45:33.531Z,55.90
2019-03-06T12:48:17.290Z,54.40
2019-03-06T12:50:54.007Z,55.00
2019-03-06T12:53:16.585Z,54.90
2019-03-06T12:55:45.427Z,56.00
2019-03-06T12:58:14.259Z,57.40
2019-03-06T13:00:43.029Z,56.60
2019-03-06T13:03:11.787Z,56.90
2019-03-06T13:05:40.716Z,56.70
2019-03-06T13:08:19.230Z,56.90
2019-03-06T13:10:39.925Z,55.80
2019-03-06T13:13:08.818Z,56.80
2019-03-06T13:15:37.659Z,57.30
2019-03-06T13:18:06.615Z,57.90
2019-03-06T13:20:35.411Z,58.70
2019-03-06T13:23:05.852Z,59.00
2019-03-06T13:25:34.705Z,57.50
2019-03-06T13:28:03.611Z,58.30
2019-03-06T13:30:34.314Z,58.10
2019-03-06T13:33:20.595Z,57.50
2019-03-06T13:35:49.419Z,58.20
2019-03-06T13:38:18.196Z,58.50
2019-03-06T13:40:47.396Z,58.50
2019-03-06T13:43:16.163Z,58.90
2019-03-06T13:45:45.194Z,58.60
2019-03-06T13:48:14.924Z,59.70
2019-03-06T13:50:43.787Z,59.80
2019-03-06T13:53:20.091Z,59.50
2019-03-06T13:55:43.010Z,60.20
2019-03-06T13:58:11.867Z,59.60
2019-03-06T14:00:40.701Z,60.30
2019-03-06T14:03:09.604Z,61.50
2019-03-06T14:05:38.458Z,61.40
2019-03-06T14:08:07.572Z,61.40
2019-03-06T14:10:36.635Z,61.60
2019-03-06T14:13:05.483Z,61.60
2019-03-06T14:15:34.329Z,62.50
2019-03-06T14:18:03.332Z,61.10
2019-03-06T14:20:32.293Z,60.50
2019-03-06T14:23:01.109Z,61.80
2019-03-06T14:25:30.778Z,63.10
2019-03-06T14:27:59.603Z,62.70
2019-03-06T14:30:30.189Z,62.80
2019-03-06T14:32:59.078Z,62.90
2019-03-06T14:35:28.453Z,63.50
2019-03-06T14:37:57.276Z,63.00
2019-03-06T14:40:33.468Z,62.30
2019-03-06T14:43:04.211Z,62.80
2019-03-06T14:45:33.068Z,62.50
2019-03-06T14:48:01.906Z,63.80
2019-03-06T14:50:30.748Z,63.80
2019-03-06T14:52:59.869Z,63.60
2019-03-06T14:55:28.702Z,63.60
2019-03-06T14:57:57.467Z,63.60
2019-03-06T15:00:26.294Z,63.70
2019-03-06T15:02:55.179Z,63.70
2019-03-06T15:05:24.003Z,63.70
2019-03-06T15:07:52.995Z,63.60
2019-03-06T15:10:22.007Z,63.60
2019-03-06T15:12:50.851Z,64.70
2019-03-06T15:15:20.506Z,65.50
2019-03-06T15:17:49.387Z,65.80
2019-03-06T15:20:30.219Z,66.20
2019-03-06T15:22:59.404Z,66.20
2019-03-06T15:25:29.187Z,66.80
2019-03-06T15:27:58.025Z,66.80
2019-03-06T15:30:26.934Z,66.80
2019-03-06T15:32:55.773Z,67.50
2019-03-06T15:35:24.940Z,67.50
2019-03-06T15:37:53.853Z,67.00
2019-03-06T15:40:28.293Z,67.80
2019-03-06T15:42:57.212Z,68.30
2019-03-06T15:45:32.577Z,67.60
2019-03-06T15:48:00.877Z,67.20
2019-03-06T15:50:29.620Z,67.30
2019-03-06T15:52:58.523Z,67.60
2019-03-06T15:55:30.662Z,67.50
2019-03-06T15:57:59.546Z,67.50
2019-03-06T16:00:45.456Z,67.80
2019-03-06T16:03:12.151Z,68.30
2019-03-06T16:05:41.566Z,68.50
2019-03-06T16:08:11.805Z,69.10
2019-03-06T16:10:41.235Z,69.20
2019-03-06T16:13:10.137Z,69.20
2019-03-06T16:15:38.996Z,69.50
2019-03-06T16:18:09.327Z,69.60
2019-03-06T16:20:38.628Z,69.90
2019-03-06T16:23:07.497Z,70.10
2019-03-06T16:25:38.974Z,70.20
2019-03-06T16:28:06.892Z,70.50
2019-03-06T16:30:35.748Z,71.00
2019-03-06T16:33:04.500Z,71.00
2019-03-06T16:35:33.445Z,71.60
2019-03-06T16:38:02.244Z,71.70
2019-03-06T16:40:31.307Z,72.00
2019-03-06T16:43:00.190Z,72.20
2019-03-06T16:45:32.062Z,72.10
2019-03-06T16:48:01.380Z,72.60
2019-03-06T16:50:30.386Z,72.90
2019-03-06T16:53:00.235Z,73.20
2019-03-06T16:55:29.199Z,73.40
2019-03-06T16:57:58.205Z,73.20
2019-03-06T17:00:32.084Z,73.50
2019-03-06T17:03:05.027Z,73.40
2019-03-06T17:05:33.983Z,73.60
2019-03-06T17:08:03.710Z,73.90
2019-03-06T17:10:33.837Z,74.10
2019-03-06T17:13:03.082Z,74.40
2019-03-06T17:15:32.366Z,74.60
2019-03-06T17:18:01.704Z,75.00
2019-03-06T17:20:32.917Z,75.00
2019-03-06T17:23:01.837Z,74.90
2019-03-06T17:25:31.774Z,75.30
2019-03-06T17:28:00.604Z,75.00
2019-03-06T17:30:32.301Z,75.30
2019-03-06T17:33:06.038Z,75.50
2019-03-06T17:35:35.454Z,75.30
2019-03-06T17:38:05.868Z,75.40
2019-03-06T17:40:34.763Z,76.10
2019-03-06T17:43:03.893Z,76.10
2019-03-06T17:45:32.954Z,75.50
2019-03-06T17:48:02.246Z,75.50
2019-03-06T17:50:31.090Z,75.80
2019-03-06T17:53:00.021Z,75.90
2019-03-06T17:55:29.028Z,75.70
2019-03-06T17:57:59.115Z,75.90
2019-03-06T18:00:31.522Z,76.50
2019-03-06T18:03:01.020Z,76.40
2019-03-06T18:05:30.140Z,76.30
2019-03-06T18:07:59.005Z,77.80
2019-03-06T18:10:28.019Z,76.90
2019-03-06T18:12:56.887Z,77.00
2019-03-06T18:15:26.165Z,77.30
2019-03-06T18:17:55.077Z,76.90
2019-03-06T18:20:23.916Z,77.10
2019-03-06T18:22:52.789Z,76.90
2019-03-06T18:25:22.876Z,76.70
2019-03-06T18:27:51.839Z,77.20
2019-03-06T18:30:20.971Z,77.50
2019-03-06T18:32:50.101Z,77.90
2019-03-06T18:35:20.613Z,77.60
2019-03-06T18:37:49.446Z,77.50
2019-03-06T18:40:23.044Z,77.90
2019-03-06T18:42:52.098Z,78.00
2019-03-06T18:45:21.837Z,78.20
2019-03-06T18:47:50.725Z,78.40
2019-03-06T18:50:21.382Z,78.40
2019-03-06T18:52:50.447Z,78.30
2019-03-06T18:55:20.084Z,78.90
2019-03-06T18:57:48.956Z,78.60
2019-03-06T19:00:21.030Z,78.70
2019-03-06T19:02:50.220Z,78.60
2019-03-06T19:05:20.270Z,78.60
2019-03-06T19:07:49.877Z,78.40
2019-03-06T19:10:25.663Z,78.40
2019-03-06T19:12:54.741Z,79.00
2019-03-06T19:15:27.893Z,78.00
2019-03-06T19:17:56.903Z,78.20
2019-03-06T19:20:25.748Z,78.10
2019-03-06T19:22:55.012Z,77.90
2019-03-06T19:25:24.062Z,77.90
2019-03-06T19:27:52.887Z,77.70
2019-03-06T19:30:23.598Z,78.40
2019-03-06T19:32:52.806Z,78.50
2019-03-06T19:35:22.854Z,78.00
2019-03-06T19:37:51.788Z,77.60
2019-03-06T19:40:21.004Z,77.60
2019-03-06T19:42:50.012Z,77.40
2019-03-06T19:45:26.550Z,77.60
2019-03-06T19:47:55.413Z,77.50
2019-03-06T19:50:26.218Z,77.50
2019-03-06T19:52:55.675Z,77.50
2019-03-06T19:55:24.852Z,77.20
2019-03-06T19:58:08.244Z,77.00
2019-03-06T20:00:37.099Z,76.80
2019-03-06T20:03:08.618Z,77.00
2019-03-06T20:05:39.932Z,76.80
2019-03-06T20:08:11.462Z,76.60
2019-03-06T20:10:40.588Z,76.60
2019-03-06T20:13:10.621Z,77.00
2019-03-06T20:15:40.217Z,77.10
2019-03-06T20:18:09.371Z,76.80
2019-03-06T20:20:38.267Z,76.80
2019-03-06T20:23:07.518Z,76.90
2019-03-06T20:25:37.199Z,76.80
2019-03-06T20:28:06.653Z,76.80
2019-03-06T20:30:35.508Z,76.70
2019-03-06T20:33:04.538Z,76.80
2019-03-06T20:35:33.460Z,76.80
2019-03-06T20:38:02.251Z,76.40
2019-03-06T20:40:31.100Z,76.80
2019-03-06T20:42:59.996Z,76.70
2019-03-06T20:45:28.852Z,76.70
2019-03-06T20:47:57.700Z,76.90
2019-03-06T20:50:26.596Z,76.80
2019-03-06T20:52:55.701Z,77.00
2019-03-06T20:55:24.532Z,77.50
2019-03-06T20:57:53.660Z,77.80
2019-03-06T21:00:25.101Z,77.60
2019-03-06T21:02:53.867Z,78.10
2019-03-06T21:05:22.772Z,77.90
2019-03-06T21:07:51.640Z,78.10
2019-03-06T21:10:21.150Z,78.00
2019-03-06T21:12:50.090Z,78.40
2019-03-06T21:15:23.688Z,78.10
2019-03-06T21:17:52.509Z,78.20
2019-03-06T21:20:24.813Z,78.40
2019-03-06T21:22:53.693Z,78.50
2019-03-06T21:25:22.837Z,78.40
2019-03-06T21:27:52.021Z,78.60
2019-03-06T21:30:29.949Z,78.70
2019-03-06T21:32:58.852Z,78.40
2019-03-06T21:35:27.687Z,78.70
2019-03-06T21:37:56.528Z,78.80
2019-03-06T21:40:25.387Z,78.70
2019-03-06T21:42:54.252Z,78.70
2019-03-06T21:45:23.053Z,79.00
2019-03-06T21:47:51.968Z,78.90
2019-03-06T21:50:20.842Z,78.70
2019-03-06T21:52:49.565Z,78.70
2019-03-06T21:55:18.452Z,79.00
2019-03-06T21:57:47.868Z,79.10
2019-03-06T22:00:23.995Z,78.90
2019-03-06T22:02:52.820Z,79.20
2019-03-06T22:05:22.764Z,79.10
2019-03-06T22:07:51.614Z,79.10
2019-03-06T22:10:20.459Z,79.10
2019-03-06T22:12:49.300Z,78.90
2019-03-06T22:15:24.436Z,79.20
2019-03-06T22:17:53.284Z,79.30
2019-03-06T22:20:22.097Z,79.50
2019-03-06T22:22:50.908Z,79.50
2019-03-06T22:25:19.961Z,79.80
2019-03-06T22:27:48.763Z,80.00
2019-03-06T22:30:22.397Z,79.80
2019-03-06T22:32:50.988Z,80.00
2019-03-06T22:35:19.835Z,80.00
2019-03-06T22:37:48.723Z,79.40
2019-03-06T22:40:19.045Z,79.50
2019-03-06T22:42:47.859Z,79.50
2019-03-06T22:45:17.771Z,79.30
2019-03-06T22:47:46.539Z,79.20
2019-03-06T22:50:16.180Z,79.40
2019-03-06T22:52:45.064Z,79.30
2019-03-06T22:55:17.897Z,79.60
2019-03-06T22:57:46.759Z,79.90
2019-03-06T23:00:30.676Z,79.30
2019-03-06T23:02:59.921Z,79.70
2019-03-06T23:05:35.614Z,80.00
2019-03-06T23:08:04.444Z,81.20
2019-03-06T23:10:33.203Z,80.70
2019-03-06T23:13:02.089Z,81.40
2019-03-06T23:15:30.875Z,81.60
2019-03-06T23:18:00.076Z,81.80
2019-03-06T23:20:28.884Z,82.20
2019-03-06T23:22:57.708Z,82.90
2019-03-06T23:25:26.428Z,83.40
2019-03-06T23:27:55.315Z,83.50
2019-03-06T23:30:24.156Z,84.60
2019-03-06T23:32:52.909Z,85.20
2019-03-06T23:35:21.811Z,85.30
2019-03-06T23:37:50.638Z,84.80
2019-03-06T23:40:19.443Z,84.90
2019-03-06T23:42:48.334Z,86.20
2019-03-06T23:45:17.107Z,88.80
2019-03-06T23:47:45.963Z,90.00
2019-03-06T23:50:14.771Z,90.40
2019-03-06T23:53:00.562Z,90.30
2019-03-06T23:55:32.915Z,90.70
2019-03-06T23:58:01.755Z,90.80
